createdAt,value
2024-02-19T00:01:34.939Z,75.77
2024-02-19T00:04:04.771Z,76.22
2024-02-19T00:06:32.436Z,75.68
2024-02-19T00:09:00.065Z,75.09
2024-02-19T00:11:27.664Z,75.22
2024-02-19T00:13:57.891Z,74.39
2024-02-19T00:16:25.480Z,73.40
2024-02-19T00:18:55.730Z,72.40
2024-02-19T00:21:23.506Z,73.60
2024-02-19T00:23:52.166Z,74.64
2024-02-19T00:26:19.816Z,75.36
2024-02-19T00:28:47.504Z,75.80
2024-02-19T00:31:15.119Z,75.70
2024-02-19T00:33:42.984Z,75.92
2024-02-19T00:36:12.085Z,75.98
2024-02-19T00:38:39.658Z,74.45
2024-02-19T00:41:07.228Z,74.83
2024-02-19T00:43:34.822Z,75.13
2024-02-19T00:46:02.492Z,75.59
2024-02-19T00:48:30.123Z,76.02
2024-02-19T00:50:57.703Z,75.46
2024-02-19T00:53:26.626Z,74.89
2024-02-19T00:55:54.750Z,74.92
2024-02-19T00:58:22.395Z,75.71
2024-02-19T01:00:50.777Z,75.67
2024-02-19T01:03:18.595Z,76.69
2024-02-19T01:05:46.387Z,75.95
2024-02-19T01:08:14.049Z,77.57
2024-02-19T01:10:43.103Z,78.00
2024-02-19T01:13:10.860Z,77.21
2024-02-19T01:15:38.569Z,76.45
2024-02-19T01:18:06.614Z,77.27
2024-02-19T01:20:34.251Z,76.85
2024-02-19T01:23:01.832Z,77.58
2024-02-19T01:25:29.424Z,76.27
2024-02-19T01:27:58.811Z,74.79
2024-02-19T01:30:27.817Z,75.52
2024-02-19T01:32:55.412Z,76.65
2024-02-19T01:35:23.399Z,74.16
2024-02-19T01:37:51.029Z,75.08
2024-02-19T01:40:18.941Z,75.65
2024-02-19T01:42:47.830Z,76.17
2024-02-19T01:45:27.374Z,76.20
2024-02-19T01:47:56.068Z,74.95
2024-02-19T01:50:24.831Z,75.14
2024-02-19T01:52:53.576Z,74.37
2024-02-19T01:55:22.346Z,74.69
2024-02-19T01:57:52.930Z,74.33
2024-02-19T02:00:21.466Z,74.82
2024-02-19T02:02:50.732Z,74.62
2024-02-19T02:05:18.369Z,74.78
2024-02-19T02:07:46.546Z,74.64
2024-02-19T02:10:14.376Z,74.31
2024-02-19T02:12:42.171Z,74.39
2024-02-19T02:15:10.548Z,71.40
2024-02-19T02:17:38.207Z,70.94
2024-02-19T02:20:09.415Z,73.17
2024-02-19T02:22:37.276Z,72.07
2024-02-19T02:25:05.624Z,73.57
2024-02-19T02:27:34.750Z,74.00
2024-02-19T02:30:04.124Z,73.36
2024-02-19T02:32:34.712Z,72.27
2024-02-19T02:35:02.650Z,72.34
2024-02-19T02:37:31.621Z,72.56
2024-02-19T02:39:59.247Z,72.23
2024-02-19T02:42:26.912Z,72.83
2024-02-19T02:44:55.883Z,73.33
2024-02-19T02:51:35.510Z,73.48
2024-02-19T02:54:03.296Z,74.04
2024-02-19T02:56:31.578Z,71.90
2024-02-19T02:58:59.142Z,71.85
2024-02-19T03:01:30.065Z,73.03
2024-02-19T03:03:58.060Z,73.21
2024-02-19T03:06:26.741Z,72.31
2024-02-19T03:08:54.617Z,72.83
2024-02-19T03:11:22.992Z,73.14
2024-02-19T03:13:51.166Z,73.74
2024-02-19T03:16:18.841Z,73.58
2024-02-19T03:18:48.099Z,72.79
2024-02-19T03:21:16.986Z,74.90
2024-02-19T03:23:51.231Z,74.66
2024-02-19T03:26:34.788Z,73.34
2024-02-19T03:29:12.637Z,73.31
2024-02-19T03:31:40.386Z,73.62
2024-02-19T03:34:09.706Z,73.30
2024-02-19T03:36:37.715Z,73.41
2024-02-19T03:39:06.002Z,72.16
2024-02-19T03:41:34.242Z,74.67
2024-02-19T03:44:01.823Z,73.34
2024-02-19T03:46:29.399Z,74.64
2024-02-19T03:48:57.223Z,74.02
2024-02-19T03:51:26.291Z,73.29
2024-02-19T03:53:55.468Z,73.92
2024-02-19T03:56:23.057Z,72.17
2024-02-19T03:58:51.186Z,71.89
2024-02-19T04:01:18.899Z,72.32
2024-02-19T04:03:46.648Z,71.20
2024-02-19T04:06:14.333Z,71.49
2024-02-19T04:08:43.261Z,71.14
2024-02-19T04:11:10.854Z,72.17
2024-02-19T04:13:38.505Z,73.14
2024-02-19T04:16:10.042Z,71.77
2024-02-19T04:18:37.843Z,72.89
2024-02-19T04:21:05.773Z,72.10
2024-02-19T04:23:33.373Z,69.31
2024-02-19T04:26:02.488Z,70.43
2024-02-19T04:28:30.218Z,68.87
2024-02-19T04:30:57.813Z,68.59
2024-02-19T04:33:25.474Z,69.62
2024-02-19T04:35:53.072Z,71.61
2024-02-19T04:38:21.150Z,71.83
2024-02-19T04:40:48.770Z,70.94
2024-02-19T04:43:17.793Z,70.89
2024-02-19T04:45:45.396Z,70.75
2024-02-19T04:48:12.999Z,72.60
2024-02-19T04:50:40.640Z,73.21
2024-02-19T04:53:08.296Z,72.93
2024-02-19T04:55:36.213Z,73.73
2024-02-19T04:58:03.918Z,73.17
2024-02-19T05:00:35.081Z,73.30
2024-02-19T05:03:03.420Z,73.74
2024-02-19T05:05:31.022Z,72.75
2024-02-19T05:07:58.680Z,73.59
2024-02-19T05:10:26.300Z,74.46
2024-02-19T05:12:53.970Z,73.73
2024-02-19T05:15:21.576Z,72.91
2024-02-19T05:17:50.653Z,71.40
2024-02-19T05:20:18.869Z,71.54
2024-02-19T05:22:48.157Z,71.77
2024-02-19T05:25:16.055Z,70.42
2024-02-19T05:27:45.171Z,70.58
2024-02-19T05:30:14.257Z,70.02
2024-02-19T05:32:41.922Z,69.31
2024-02-19T05:35:11.756Z,69.27
2024-02-19T05:37:39.366Z,69.74
2024-02-19T05:40:08.456Z,68.95
2024-02-19T05:42:36.082Z,69.52
2024-02-19T05:45:03.919Z,69.73
2024-02-19T05:47:31.561Z,67.09
2024-02-19T05:49:59.302Z,66.96
2024-02-19T05:52:28.247Z,65.98
2024-02-19T05:54:57.464Z,65.22
2024-02-19T05:57:25.368Z,65.44
2024-02-19T05:59:54.598Z,65.04
2024-02-19T06:02:23.540Z,64.96
2024-02-19T06:04:51.660Z,63.98
2024-02-19T06:07:19.307Z,62.99
2024-02-19T06:09:48.528Z,62.43
2024-02-19T06:12:16.146Z,61.28
2024-02-19T06:14:44.011Z,62.01
2024-02-19T06:17:11.578Z,63.69
2024-02-19T06:19:42.447Z,64.80
2024-02-19T06:22:10.423Z,63.83
2024-02-19T06:24:38.580Z,63.46
2024-02-19T06:27:07.816Z,62.52
2024-02-19T06:29:35.659Z,61.36
2024-02-19T06:32:03.359Z,61.04
2024-02-19T06:34:32.549Z,61.19
2024-02-19T06:37:00.480Z,62.23
2024-02-19T06:39:28.066Z,61.26
2024-02-19T06:41:55.655Z,60.42
2024-02-19T06:44:24.544Z,61.29
2024-02-19T06:46:52.107Z,59.83
2024-02-19T06:49:23.298Z,61.24
2024-02-19T06:51:51.008Z,61.12
2024-02-19T06:54:18.641Z,60.28
2024-02-19T06:56:46.840Z,59.47
2024-02-19T06:59:14.606Z,59.63
2024-02-19T07:01:43.608Z,58.77
2024-02-19T07:04:12.454Z,60.15
2024-02-19T07:06:40.724Z,58.73
2024-02-19T07:09:08.461Z,58.19
2024-02-19T07:11:39.374Z,58.57
2024-02-19T07:14:07.404Z,58.46
2024-02-19T07:16:35.009Z,59.92
2024-02-19T07:19:04.676Z,60.26
2024-02-19T07:21:32.563Z,59.45
2024-02-19T07:24:00.170Z,58.51
2024-02-19T07:26:27.752Z,59.88
2024-02-19T07:28:55.410Z,59.71
2024-02-19T07:31:23.032Z,61.33
2024-02-19T07:33:51.097Z,60.39
2024-02-19T07:36:20.141Z,60.90
2024-02-19T07:38:47.721Z,60.07
2024-02-19T07:41:16.652Z,59.88
2024-02-19T07:43:45.251Z,58.58
2024-02-19T07:46:13.490Z,58.66
2024-02-19T07:48:41.234Z,57.77
2024-02-19T07:51:09.332Z,60.12
2024-02-19T07:53:38.307Z,59.88
2024-02-19T07:56:06.991Z,61.34
2024-02-19T07:58:34.747Z,59.79
2024-02-19T08:01:05.311Z,60.36
2024-02-19T08:03:34.070Z,60.66
2024-02-19T08:06:02.162Z,61.45
2024-02-19T08:08:30.700Z,61.31
2024-02-19T08:11:00.430Z,61.38
2024-02-19T08:13:28.180Z,58.49
2024-02-19T08:15:55.903Z,60.35
2024-02-19T08:18:24.522Z,60.87
2024-02-19T08:20:53.369Z,60.31
2024-02-19T08:23:20.939Z,59.55
2024-02-19T08:25:49.405Z,59.04
2024-02-19T08:28:18.398Z,58.53
2024-02-19T08:30:46.337Z,58.40
2024-02-19T08:33:14.091Z,58.07
2024-02-19T08:35:42.556Z,58.85
2024-02-19T08:38:10.323Z,59.46
2024-02-19T08:40:38.001Z,59.07
2024-02-19T08:43:05.988Z,58.77
2024-02-19T08:45:37.215Z,59.14
2024-02-19T08:48:06.163Z,60.65
2024-02-19T08:50:33.870Z,59.75
2024-02-19T08:53:01.637Z,60.26
2024-02-19T08:55:29.432Z,60.67
2024-02-19T08:57:57.305Z,61.37
2024-02-19T09:00:25.030Z,61.98
2024-02-19T09:02:54.062Z,60.82
2024-02-19T09:05:23.742Z,61.01
2024-02-19T09:07:51.387Z,60.41
2024-02-19T09:10:19.005Z,59.79
2024-02-19T09:12:46.632Z,57.67
2024-02-19T09:15:14.261Z,58.41
2024-02-19T09:17:41.864Z,58.68
2024-02-19T09:20:12.708Z,56.50
2024-02-19T09:22:42.827Z,56.87
2024-02-19T09:25:10.650Z,56.26
2024-02-19T09:27:38.218Z,55.00
2024-02-19T09:30:08.923Z,57.44
2024-02-19T09:32:36.579Z,55.53
2024-02-19T09:35:04.734Z,55.63
2024-02-19T09:37:33.938Z,56.22
2024-02-19T09:40:01.691Z,56.75
2024-02-19T09:42:30.713Z,57.60
2024-02-19T09:44:58.408Z,55.83
2024-02-19T09:47:26.367Z,56.61
2024-02-19T09:49:55.141Z,55.01
2024-02-19T09:52:29.140Z,54.93
2024-02-19T09:55:00.157Z,53.99
2024-02-19T09:57:29.200Z,54.52
2024-02-19T09:59:59.450Z,53.51
2024-02-19T10:02:27.211Z,54.15
2024-02-19T10:07:23.056Z,51.46
2024-02-19T10:09:51.641Z,52.02
2024-02-19T10:12:20.989Z,51.57
2024-02-19T10:14:48.804Z,51.61
2024-02-19T10:17:22.595Z,50.35
2024-02-19T10:20:00.834Z,51.37
2024-02-19T10:22:28.511Z,50.64
2024-02-19T10:24:56.186Z,51.50
2024-02-19T10:27:25.309Z,52.44
2024-02-19T10:29:52.895Z,51.89
2024-02-19T10:32:20.472Z,51.31
2024-02-19T10:34:48.099Z,51.51
2024-02-19T10:37:15.894Z,51.50
2024-02-19T10:39:43.815Z,52.46
2024-02-19T10:42:11.774Z,52.62
2024-02-19T10:44:42.675Z,51.41
2024-02-19T10:47:10.774Z,52.78
2024-02-19T10:49:38.471Z,52.48
2024-02-19T10:52:07.001Z,51.74
2024-02-19T10:54:34.623Z,51.09
2024-02-19T10:57:09.067Z,52.42
2024-02-19T10:59:37.193Z,52.88
2024-02-19T11:02:10.821Z,54.86
2024-02-19T11:04:38.550Z,53.87
2024-02-19T11:07:07.206Z,53.50
2024-02-19T11:09:35.713Z,53.04
2024-02-19T11:12:06.464Z,53.26
2024-02-19T11:14:36.818Z,51.94
2024-02-19T11:17:05.687Z,51.45
2024-02-19T11:19:40.695Z,51.18
2024-02-19T11:22:10.864Z,50.85
2024-02-19T11:24:39.800Z,52.49
2024-02-19T11:27:08.881Z,53.21
2024-02-19T11:29:43.750Z,53.30
2024-02-19T11:32:19.160Z,53.10
2024-02-19T11:34:49.084Z,53.24
2024-02-19T11:37:17.183Z,53.33
2024-02-19T11:39:45.687Z,53.37
2024-02-19T11:42:16.252Z,52.08
2024-02-19T11:44:46.377Z,52.33
2024-02-19T11:47:15.939Z,53.88
2024-02-19T11:49:44.632Z,54.28
2024-02-19T11:52:15.213Z,53.78
2024-02-19T11:54:43.360Z,53.01
2024-02-19T11:57:13.631Z,51.91
2024-02-19T11:59:41.279Z,52.98
2024-02-19T12:02:10.673Z,52.20
2024-02-19T12:04:40.245Z,52.78
2024-02-19T12:07:11.390Z,50.85
2024-02-19T12:09:41.127Z,49.52
2024-02-19T12:12:11.066Z,49.73
2024-02-19T12:14:38.892Z,50.13
2024-02-19T12:17:09.319Z,54.01
2024-02-19T12:19:37.096Z,53.37
2024-02-19T12:22:05.303Z,53.44
2024-02-19T12:24:33.028Z,54.72
2024-02-19T12:27:01.952Z,55.39
2024-02-19T12:29:29.673Z,55.43
2024-02-19T12:31:57.252Z,55.34
2024-02-19T12:34:24.980Z,55.41
2024-02-19T12:36:52.816Z,53.89
2024-02-19T12:39:20.717Z,52.70
2024-02-19T12:41:50.022Z,51.10
2024-02-19T12:44:19.004Z,51.06
2024-02-19T12:46:46.738Z,52.80
2024-02-19T12:49:14.584Z,53.13
2024-02-19T12:51:43.139Z,53.30
2024-02-19T12:54:10.886Z,51.97
2024-02-19T12:56:38.511Z,52.13
2024-02-19T12:59:06.119Z,53.23
2024-02-19T13:01:35.439Z,54.33
2024-02-19T13:04:03.518Z,54.00
2024-02-19T13:06:31.930Z,55.86
2024-02-19T13:08:59.994Z,54.93
2024-02-19T13:11:28.845Z,55.74
2024-02-19T13:13:57.901Z,55.54
2024-02-19T13:16:25.601Z,55.02
2024-02-19T13:18:54.716Z,55.13
2024-02-19T13:21:22.487Z,55.42
2024-02-19T13:23:50.581Z,56.29
2024-02-19T13:26:18.219Z,54.88
2024-02-19T13:28:45.963Z,54.93
2024-02-19T13:31:14.053Z,56.18
2024-02-19T13:33:42.857Z,55.25
2024-02-19T13:36:11.902Z,54.63
2024-02-19T13:38:39.778Z,54.01
2024-02-19T13:41:07.727Z,54.80
2024-02-19T13:43:36.165Z,54.27
2024-02-19T13:46:07.690Z,56.15
2024-02-19T13:48:36.989Z,55.30
2024-02-19T13:51:05.139Z,54.20
2024-02-19T13:53:34.216Z,53.40
2024-02-19T13:56:02.352Z,53.69
2024-02-19T13:58:30.779Z,54.06
2024-02-19T14:00:59.249Z,54.39
2024-02-19T14:03:27.344Z,54.74
2024-02-19T14:05:55.075Z,54.62
2024-02-19T14:08:23.148Z,54.73
2024-02-19T14:10:53.021Z,54.53
2024-02-19T14:13:21.329Z,54.40
2024-02-19T14:15:49.207Z,55.95
2024-02-19T14:18:17.326Z,54.07
2024-02-19T14:20:45.025Z,53.63
2024-02-19T14:23:13.593Z,54.61
2024-02-19T14:25:41.413Z,53.92
2024-02-19T14:28:10.975Z,55.35
2024-02-19T14:30:39.872Z,55.84
2024-02-19T14:33:07.596Z,54.94
2024-02-19T14:35:35.547Z,55.58
2024-02-19T14:38:04.335Z,55.65
2024-02-19T14:40:32.585Z,58.12
2024-02-19T14:43:02.098Z,57.26
2024-02-19T14:45:31.370Z,59.38
2024-02-19T14:47:59.151Z,59.22
2024-02-19T14:50:26.883Z,58.38
2024-02-19T14:52:54.646Z,59.24
2024-02-19T14:55:22.321Z,59.07
2024-02-19T14:57:50.261Z,57.39
2024-02-19T15:00:22.475Z,58.39
2024-02-19T15:02:52.271Z,58.68
2024-02-19T15:05:21.291Z,58.80
2024-02-19T15:07:54.882Z,58.94
2024-02-19T15:10:25.663Z,59.91
2024-02-19T15:12:54.434Z,59.58
2024-02-19T15:15:22.392Z,58.54
2024-02-19T15:17:50.858Z,59.33
2024-02-19T15:20:20.684Z,60.59
2024-02-19T15:22:50.746Z,60.25
2024-02-19T15:25:18.534Z,58.84
2024-02-19T15:27:46.877Z,57.68
2024-02-19T15:30:15.390Z,56.71
2024-02-19T15:32:43.118Z,56.13
2024-02-19T15:35:11.061Z,57.04
2024-02-19T15:37:41.367Z,58.00
2024-02-19T15:40:10.705Z,58.29
2024-02-19T15:42:38.963Z,58.05
2024-02-19T15:45:07.845Z,59.45
2024-02-19T15:47:36.325Z,58.82
2024-02-19T15:50:07.592Z,59.92
2024-02-19T15:52:36.581Z,58.53
2024-02-19T15:55:06.776Z,59.33
2024-02-19T15:57:34.749Z,60.10
2024-02-19T16:00:07.476Z,62.88
2024-02-19T16:02:39.944Z,62.94
2024-02-19T16:05:08.847Z,63.15
2024-02-19T16:07:36.804Z,61.91
2024-02-19T16:10:09.453Z,61.53
2024-02-19T16:12:37.130Z,60.76
2024-02-19T16:15:07.963Z,61.07
2024-02-19T16:17:35.604Z,60.19
2024-02-19T16:20:04.313Z,59.71
2024-02-19T16:22:32.191Z,60.52
2024-02-19T16:25:00.366Z,60.53
2024-02-19T16:27:29.739Z,62.03
2024-02-19T16:29:57.392Z,62.11
2024-02-19T16:32:24.964Z,61.70
2024-02-19T16:34:52.623Z,61.48
2024-02-19T16:37:20.316Z,60.57
2024-02-19T16:39:49.492Z,59.64
2024-02-19T16:42:18.118Z,59.89
2024-02-19T16:44:47.341Z,59.75
2024-02-19T16:47:15.051Z,60.81
2024-02-19T16:49:44.764Z,61.16
2024-02-19T16:52:13.469Z,60.90
2024-02-19T16:54:41.246Z,61.87
2024-02-19T16:57:08.825Z,61.20
2024-02-19T16:59:37.493Z,61.35
2024-02-19T17:02:06.623Z,60.72
2024-02-19T17:04:34.352Z,61.58
2024-02-19T17:07:04.345Z,61.78
2024-02-19T17:09:35.068Z,61.73
2024-02-19T17:12:02.793Z,61.62
2024-02-19T17:14:30.349Z,61.43
2024-02-19T17:16:59.773Z,61.70
2024-02-19T17:19:28.807Z,61.45
2024-02-19T17:21:56.527Z,61.45
2024-02-19T17:24:24.332Z,61.35
2024-02-19T17:26:52.260Z,61.23
2024-02-19T17:29:19.812Z,60.93
2024-02-19T17:31:50.182Z,61.02
2024-02-19T17:34:18.685Z,60.93
2024-02-19T17:36:47.933Z,61.15
2024-02-19T17:39:15.569Z,61.16
2024-02-19T17:41:43.164Z,60.79
2024-02-19T17:44:11.186Z,60.66
2024-02-19T17:46:38.825Z,61.33
2024-02-19T17:49:09.503Z,60.85
2024-02-19T17:51:37.440Z,61.39
2024-02-19T17:54:07.919Z,61.17
2024-02-19T17:56:35.507Z,61.29
2024-02-19T17:59:03.228Z,61.79
2024-02-19T18:01:30.912Z,61.89
2024-02-19T18:03:58.632Z,61.45
2024-02-19T18:06:26.260Z,60.53
2024-02-19T18:08:53.888Z,60.53
2024-02-19T18:11:22.883Z,59.11
2024-02-19T18:13:50.844Z,59.69
2024-02-19T18:16:18.466Z,59.63
2024-02-19T18:18:46.357Z,60.06
2024-02-19T18:21:14.319Z,59.97
2024-02-19T18:23:42.178Z,60.18
2024-02-19T18:26:09.908Z,60.44
2024-02-19T18:28:38.888Z,59.79
2024-02-19T18:31:11.338Z,60.76
2024-02-19T18:33:39.393Z,60.82
2024-02-19T18:36:07.708Z,60.21
2024-02-19T18:38:38.385Z,61.38
2024-02-19T18:41:06.168Z,61.29
2024-02-19T18:43:33.861Z,62.49
2024-02-19T18:46:03.005Z,64.35
2024-02-19T18:48:31.853Z,66.38
2024-02-19T18:50:59.875Z,70.42
2024-02-19T18:53:27.832Z,69.89
2024-02-19T18:56:01.339Z,71.06
2024-02-19T18:58:30.401Z,72.88
2024-02-19T19:00:59.136Z,71.41
2024-02-19T19:03:28.953Z,70.60
2024-02-19T19:05:59.765Z,72.19
2024-02-19T19:08:27.763Z,71.67
2024-02-19T19:10:55.566Z,72.11
2024-02-19T19:13:23.960Z,70.73
2024-02-19T19:15:51.722Z,70.87
2024-02-19T19:18:20.147Z,70.95
2024-02-19T19:20:49.129Z,70.36
2024-02-19T19:23:16.946Z,71.54
2024-02-19T19:25:44.554Z,70.47
2024-02-19T19:28:12.284Z,68.71
2024-02-19T19:30:39.881Z,67.48
2024-02-19T19:33:07.516Z,66.46
2024-02-19T19:35:37.311Z,65.63
2024-02-19T19:38:06.884Z,66.96
2024-02-19T19:40:34.448Z,65.44
2024-02-19T19:43:02.212Z,64.41
2024-02-19T19:45:29.844Z,63.89
2024-02-19T19:47:57.496Z,63.71
2024-02-19T19:50:25.156Z,64.20
2024-02-19T19:52:52.761Z,65.18
2024-02-19T19:55:21.740Z,65.40
2024-02-19T19:57:52.888Z,65.09
2024-02-19T20:00:20.844Z,63.34
2024-02-19T20:02:48.431Z,63.00
2024-02-19T20:05:16.173Z,62.97
2024-02-19T20:07:44.111Z,63.83
2024-02-19T20:10:14.904Z,66.02
2024-02-19T20:12:44.007Z,64.73
2024-02-19T20:15:11.990Z,64.08
2024-02-19T20:17:39.601Z,63.47
2024-02-19T20:20:09.059Z,63.52
2024-02-19T20:22:36.726Z,63.18
2024-02-19T20:25:05.224Z,62.43
2024-02-19T20:27:32.854Z,63.01
2024-02-19T20:30:01.941Z,62.50
2024-02-19T20:32:29.760Z,63.11
2024-02-19T20:34:57.455Z,65.08
2024-02-19T20:37:25.153Z,63.84
2024-02-19T20:39:52.804Z,63.93
2024-02-19T20:42:20.406Z,62.97
2024-02-19T20:44:48.020Z,63.70
2024-02-19T20:47:18.590Z,64.18
2024-02-19T20:49:47.810Z,63.93
2024-02-19T20:52:15.681Z,63.79
2024-02-19T20:54:43.370Z,64.99
2024-02-19T20:57:12.436Z,65.83
2024-02-19T20:59:40.086Z,65.94
2024-02-19T21:02:08.009Z,67.58
2024-02-19T21:04:37.861Z,66.83
2024-02-19T21:07:06.260Z,66.51
2024-02-19T21:09:36.116Z,66.58
2024-02-19T21:12:03.719Z,67.61
2024-02-19T21:14:31.513Z,66.12
2024-02-19T21:16:59.390Z,64.52
2024-02-19T21:19:27.100Z,65.16
2024-02-19T21:21:56.094Z,65.91
2024-02-19T21:24:24.964Z,64.20
2024-02-19T21:26:52.626Z,63.48
2024-02-19T21:29:20.266Z,62.49
2024-02-19T21:31:47.913Z,62.44
2024-02-19T21:34:16.064Z,62.74
2024-02-19T21:36:43.823Z,61.76
2024-02-19T21:39:12.784Z,61.98
2024-02-19T21:41:40.722Z,62.01
2024-02-19T21:44:08.377Z,61.45
2024-02-19T21:46:37.229Z,61.33
2024-02-19T21:49:05.146Z,61.49
2024-02-19T21:51:32.912Z,61.35
2024-02-19T21:54:00.494Z,61.09
2024-02-19T21:56:29.412Z,61.35
2024-02-19T21:58:56.986Z,62.34
2024-02-19T22:01:24.687Z,62.29
2024-02-19T22:03:52.494Z,62.78
2024-02-19T22:06:20.264Z,62.66
2024-02-19T22:08:47.863Z,61.17
2024-02-19T22:11:20.472Z,60.65
2024-02-19T22:13:50.575Z,61.27
2024-02-19T22:16:18.244Z,62.55
2024-02-19T22:18:45.887Z,61.81
2024-02-19T22:21:13.492Z,62.36
2024-02-19T22:23:41.227Z,63.44
2024-02-19T22:26:09.540Z,63.41
2024-02-19T22:28:37.251Z,62.83
2024-02-19T22:31:07.272Z,61.87
2024-02-19T22:33:35.036Z,61.38
2024-02-19T22:36:02.605Z,61.48
2024-02-19T22:38:30.230Z,64.13
2024-02-19T22:40:58.166Z,64.94
2024-02-19T22:43:27.487Z,64.64
2024-02-19T22:45:55.375Z,64.56
2024-02-19T22:48:24.503Z,63.20
2024-02-19T22:50:52.192Z,62.29
2024-02-19T22:53:19.758Z,62.65
2024-02-19T22:55:47.402Z,62.29
2024-02-19T22:58:28.731Z,62.41
2024-02-19T23:00:59.676Z,61.94
2024-02-19T23:03:28.908Z,61.00
2024-02-19T23:05:56.771Z,61.20
2024-02-19T23:08:24.612Z,61.74
2024-02-19T23:10:53.079Z,61.25
2024-02-19T23:13:21.085Z,61.23
2024-02-19T23:15:49.250Z,61.10
2024-02-19T23:18:17.033Z,61.65
2024-02-19T23:20:46.094Z,62.32
2024-02-19T23:23:13.707Z,62.49
2024-02-19T23:25:41.773Z,63.83
2024-02-19T23:28:09.491Z,63.13
2024-02-19T23:30:37.243Z,64.00
2024-02-19T23:33:05.247Z,66.04
2024-02-19T23:35:34.160Z,66.63
2024-02-19T23:38:04.501Z,64.40
2024-02-19T23:40:32.289Z,64.78
2024-02-19T23:43:00.282Z,64.95
2024-02-19T23:45:28.377Z,65.96
2024-02-19T23:47:56.054Z,66.04
2024-02-19T23:50:23.907Z,67.43
2024-02-19T23:52:51.514Z,66.75
2024-02-19T23:55:20.483Z,66.55
2024-02-19T23:57:48.181Z,65.71
